หน้าหลัก
METAR-TAF:

METAR-TAF

ท่าอากาศยาน :

ท่าอากาศยานคิตะกีวชู

คิตะกีวชู, ญี่ปุ่น

ละติจูด: 33-50N, ลองจิจูด: 130-57E, ความสูง: 3 ม.

การสังเกตสภาพอากาศปัจจุบัน

รายงานได้ทำขึ้นเมื่อ 15 นาทีที่แล้ว ณ เวลา 11:00 UTC
ลม 11 นอตจากเหนือ
อุณหภูมิ 7°C
ความชื้น 76%
ความกดอากาศ 1025 hPa
ทัศนวิสัย 10 กม. หรือมากกว่า
มีเมฆน้อยที่ความสูง 2000 ฟุต
มีเมฆกระจายเป็นบางส่วนที่ความสูง 3000 ฟุต

METAR: RJFR 261100Z 01011KT 9999 FEW020 SCT030 07/03 Q1025

เวลา: 20:15 (11:15 UTC)

การพยากรณ์

รายงานได้ทำขึ้นเมื่อ 6 ชั่วโมงและ 9 นาทีที่แล้ว ณ เวลา 05:06 UTC
การพยากรณ์มีผลตั้งแต่วันที่ 26 ณ เวลา 06 UTC จนถึงวันที่ 27 ณ เวลา 12 UTC
ลม 15 นอตจากเหนือ
ทัศนวิสัย 10 กม. หรือมากกว่า
มีเมฆน้อยที่ความสูง 1500 ฟุต
มีเมฆเป็นส่วนมากเว้นเป็นระยะที่ความสูง 4000 ฟุต

TAF: RJFR 260506Z 2606/2712 36015KT 9999 FEW015 BKN040

สังเกตการณ์สภาพอากาศและพยากรณ์อากาศของสนามบินมากกว่า 4000 แห่ง (รายงาน METAR และ TAF).

สถานีที่ดูได้จะแสดงไว้ด้วยจุดสีเหลืองและสีแดงบนแผนที่.

เลื่อนเมาส์ไปเหนือจุดเพื่อดูชื่อสถานี.

แล้วคลิกเพื่อดูสังเกตการณ์และการพยากรณ์สภาพอากาศ.

ในการเปลี่ยนแผนที่: คลิกที่ปุ่มสีเขียวที่มีกากบาทสีดำเพื่อซูมเข้า; ที่ปุ่มสีเขียวที่มีขีดเพื่อซูมออก; หรือที่ลูกศรสีเขียวเพื่อไปยังแผนที่ที่อยู่ติดกัน.


METAR-TAF: